Time;durP1;ratioP1;P1;durP2;ratioP2;P2;SDS_P1;SDS_P2;PMS_P1;PMS_P2;Temp;Humidity;BMP_temperature;BMP_pressure;BME280_temperature;BME280_humidity;BME280_pressure;Samples;Min_cycle;Max_cycle;Signal;HPM_P1;HPM_P2
2021/04/25 00:01:41;;;;;;;7.47;2.05;;;5.80;94.10;;;;;;4997320;28;20053;-64
2021/04/25 00:04:09;;;;;;;11.18;2.50;;;5.80;94.30;;;;;;4995940;28;20034;-61
2021/04/25 00:06:35;;;;;;;5.47;1.88;;;5.80;94.30;;;;;;4984009;28;20721;-63
2021/04/25 00:09:00;;;;;;;7.55;3.25;;;5.70;94.50;;;;;;4990528;28;20050;-63
2021/04/25 00:11:26;;;;;;;4.38;2.22;;;5.60;94.50;;;;;;4965221;28;20042;-63
2021/04/25 00:13:52;;;;;;;11.65;2.03;;;5.60;94.70;;;;;;4988381;28;20113;-63
2021/04/25 00:16:17;;;;;;;15.23;3.47;;;5.60;94.90;;;;;;4986080;28;20029;-63
2021/04/25 00:18:43;;;;;;;4.32;1.80;;;5.50;94.90;;;;;;4987165;28;20026;-63
2021/04/25 00:21:10;;;;;;;9.55;2.35;;;5.50;95.00;;;;;;4996145;28;20030;-63
2021/04/25 00:23:37;;;;;;;6.97;2.90;;;5.50;94.90;;;;;;4993216;28;20104;-64
2021/04/25 00:26:03;;;;;;;6.47;1.90;;;5.40;95.30;;;;;;4985472;28;20069;-63
2021/04/25 00:28:29;;;;;;;5.50;1.95;;;5.40;95.20;;;;;;4985044;28;20034;-59
2021/04/25 00:30:54;;;;;;;6.97;2.00;;;5.40;95.10;;;;;;4988251;28;20026;-63
2021/04/25 00:33:20;;;;;;;6.03;3.13;;;5.30;95.30;;;;;;4989082;28;20518;-64
2021/04/25 00:35:46;;;;;;;6.07;2.10;;;5.30;95.40;;;;;;4995583;28;20484;-64
2021/04/25 00:38:11;;;;;;;6.18;1.85;;;5.30;95.30;;;;;;5001050;28;20395;-64
2021/04/25 00:40:37;;;;;;;5.28;2.28;;;5.20;95.40;;;;;;4996554;28;20034;-63
2021/04/25 00:43:03;;;;;;;7.20;2.47;;;5.20;95.30;;;;;;4992373;28;20488;-64
2021/04/25 00:45:28;;;;;;;13.00;2.75;;;5.10;96.00;;;;;;4988721;28;20483;-62
2021/04/25 00:47:54;;;;;;;8.18;1.95;;;5.00;95.50;;;;;;4987778;28;20057;-63
2021/04/25 00:50:25;;;;;;;4.82;2.20;;;5.00;95.70;;;;;;5000948;28;20061;-63
2021/04/25 00:52:54;;;;;;;8.90;2.08;;;5.00;95.90;;;;;;4993065;28;20042;-62
2021/04/25 00:55:23;;;;;;;8.45;2.03;;;5.00;95.80;;;;;;4999160;28;20513;-62
2021/04/25 00:57:49;;;;;;;5.90;1.75;;;5.00;95.60;;;;;;4995494;28;20557;-63
2021/04/25 01:00:16;;;;;;;6.00;1.90;;;4.90;95.70;;;;;;4986963;28;20034;-63
2021/04/25 01:02:41;;;;;;;12.35;2.70;;;4.90;95.50;;;;;;4986490;28;20039;-63
2021/04/25 01:05:10;;;;;;;6.53;2.47;;;4.90;95.60;;;;;;4989078;28;20037;-63
2021/04/25 01:07:35;;;;;;;2.97;1.55;;;4.80;95.60;;;;;;4987691;28;20030;-62
2021/04/25 01:10:02;;;;;;;4.88;1.52;;;4.80;95.70;;;;;;4990949;28;20026;-64
2021/04/25 01:12:28;;;;;;;12.45;1.85;;;4.70;96.00;;;;;;4995316;28;20033;-64
2021/04/25 01:14:53;;;;;;;8.35;2.15;;;4.70;96.00;;;;;;4999074;28;20500;-63
2021/04/25 01:17:19;;;;;;;6.43;1.63;;;4.60;96.00;;;;;;4998296;28;20038;-63
2021/04/25 01:19:45;;;;;;;12.23;2.08;;;4.60;96.10;;;;;;5000331;28;20023;-61
2021/04/25 01:22:11;;;;;;;8.98;1.80;;;4.60;96.20;;;;;;4995992;28;20437;-63
2021/04/25 01:24:36;;;;;;;3.63;1.80;;;4.50;96.40;;;;;;4996809;28;20046;-62
2021/04/25 01:27:03;;;;;;;12.90;1.70;;;4.50;96.50;;;;;;4990570;28;20543;-63
2021/04/25 01:29:28;;;;;;;11.10;1.52;;;4.50;96.30;;;;;;5001397;28;20026;-63
2021/04/25 01:31:54;;;;;;;16.70;2.28;;;4.40;97.00;;;;;;5009207;28;20057;-63
2021/04/25 01:34:19;;;;;;;4.85;1.65;;;4.40;96.80;;;;;;5000124;28;20030;-64
2021/04/25 01:36:45;;;;;;;5.40;1.90;;;4.40;96.80;;;;;;4981316;28;20580;-63
2021/04/25 01:39:11;;;;;;;6.18;2.03;;;4.30;96.70;;;;;;4996813;28;20562;-64
2021/04/25 01:41:36;;;;;;;6.93;2.80;;;4.30;97.10;;;;;;4995738;28;20678;-63
2021/04/25 01:44:03;;;;;;;5.38;1.67;;;4.30;97.10;;;;;;5001069;28;20050;-62
2021/04/25 01:46:29;;;;;;;8.20;2.00;;;4.20;97.40;;;;;;4996884;28;20041;-63
2021/04/25 01:48:55;;;;;;;4.57;2.00;;;4.10;97.80;;;;;;4993123;28;20038;-63
2021/04/25 01:51:20;;;;;;;8.57;2.00;;;4.10;97.60;;;;;;4988593;28;20032;-63
2021/04/25 01:53:46;;;;;;;7.32;1.83;;;4.10;97.50;;;;;;4992255;28;20480;-63
2021/04/25 01:56:12;;;;;;;6.00;2.35;;;4.00;97.80;;;;;;4999618;28;20042;-63
2021/04/25 01:58:38;;;;;;;9.73;2.38;;;4.00;98.10;;;;;;5000458;28;20038;-62
2021/04/25 02:01:04;;;;;;;13.40;2.65;;;4.00;98.10;;;;;;4996364;28;20034;-63
2021/04/25 02:03:30;;;;;;;10.02;2.30;;;4.00;98.30;;;;;;4993555;28;20133;-63
2021/04/25 02:05:55;;;;;;;6.70;2.28;;;4.00;98.70;;;;;;4991173;28;20122;-64
2021/04/25 02:08:21;;;;;;;11.90;3.20;;;3.90;99.20;;;;;;4995660;28;20109;-63
2021/04/25 02:10:47;;;;;;;9.20;3.00;;;3.90;99.50;;;;;;4999700;28;20030;-63
2021/04/25 02:13:13;;;;;;;8.23;2.80;;;3.90;99.80;;;;;;5002421;28;20109;-64
2021/04/25 02:15:39;;;;;;;9.57;3.20;;;3.90;99.90;;;;;;4992427;28;20066;-64
2021/04/25 02:18:05;;;;;;;6.43;2.63;;;3.80;99.90;;;;;;4992334;28;20510;-64
2021/04/25 02:20:31;;;;;;;11.43;3.38;;;3.80;99.90;;;;;;4984711;28;20979;-63
2021/04/25 02:22:57;;;;;;;9.75;3.55;;;3.70;99.90;;;;;;4988025;28;20492;-64
2021/04/25 02:25:23;;;;;;;13.23;3.63;;;3.70;99.90;;;;;;4999112;28;20061;-63
2021/04/25 02:27:49;;;;;;;13.35;4.03;;;3.70;99.90;;;;;;4995329;28;20062;-60
2021/04/25 02:30:25;;;;;;;11.52;3.15;;;3.60;99.90;;;;;;5000972;28;20018;-63
2021/04/25 02:32:51;;;;;;;8.15;3.20;;;3.60;99.90;;;;;;4996372;28;20165;-64
2021/04/25 02:35:18;;;;;;;8.82;3.20;;;3.50;99.90;;;;;;5000278;28;20096;-64
2021/04/25 02:37:44;;;;;;;12.93;3.83;;;3.50;99.90;;;;;;4992372;28;20038;-63
2021/04/25 02:40:12;;;;;;;13.77;3.92;;;3.40;99.90;;;;;;4994248;28;20029;-63
2021/04/25 02:42:38;;;;;;;8.55;4.18;;;3.40;99.90;;;;;;4990318;28;20042;-63
2021/04/25 02:45:05;;;;;;;10.98;3.90;;;3.50;99.90;;;;;;4985955;28;20420;-63
2021/04/25 02:47:31;;;;;;;10.80;3.90;;;3.50;99.90;;;;;;4987908;28;20038;-61
2021/04/25 02:49:56;;;;;;;9.95;3.72;;;3.40;99.90;;;;;;4993672;28;20080;-63
2021/04/25 02:52:25;;;;;;;14.68;4.05;;;3.40;99.90;;;;;;4990703;28;20508;-64
2021/04/25 02:54:52;;;;;;;7.63;3.83;;;3.40;99.90;;;;;;4987621;28;20022;-63
2021/04/25 02:57:18;;;;;;;12.60;3.67;;;3.40;99.90;;;;;;4996117;28;20116;-63
2021/04/25 02:59:44;;;;;;;12.88;3.58;;;3.40;99.90;;;;;;4996686;28;20114;-64
2021/04/25 03:02:09;;;;;;;10.18;4.35;;;3.30;99.90;;;;;;4980747;28;20062;-64
2021/04/25 03:04:35;;;;;;;13.30;4.45;;;3.30;99.90;;;;;;4994019;28;20077;-63
2021/04/25 03:07:00;;;;;;;10.43;3.80;;;3.30;99.90;;;;;;5001882;28;20045;-64
2021/04/25 03:09:26;;;;;;;7.32;3.72;;;3.30;99.90;;;;;;5002372;28;20030;-62
2021/04/25 03:11:52;;;;;;;13.88;3.85;;;3.20;99.90;;;;;;4992722;28;20111;-62
2021/04/25 03:14:17;;;;;;;12.35;3.40;;;3.20;99.90;;;;;;5004292;28;20049;-64
2021/04/25 03:16:43;;;;;;;12.80;4.50;;;3.20;99.90;;;;;;4992775;28;20041;-62
2021/04/25 03:19:08;;;;;;;12.15;4.03;;;3.20;99.90;;;;;;5002754;28;20030;-64
2021/04/25 03:21:34;;;;;;;10.25;3.83;;;3.20;99.90;;;;;;4993557;28;20042;-63
2021/04/25 03:23:59;;;;;;;11.02;3.97;;;3.10;99.90;;;;;;4997918;28;20038;-64
2021/04/25 03:26:25;;;;;;;14.07;3.95;;;3.10;99.90;;;;;;5000973;28;20056;-63
2021/04/25 03:28:51;;;;;;;11.57;3.97;;;3.10;99.90;;;;;;4997098;28;20026;-63
2021/04/25 03:31:16;;;;;;;9.93;4.00;;;3.00;99.90;;;;;;4996636;28;20555;-64
2021/04/25 03:33:42;;;;;;;13.00;4.57;;;3.00;99.90;;;;;;4997022;28;20058;-63
2021/04/25 03:36:07;;;;;;;11.70;4.22;;;3.00;99.90;;;;;;5001336;28;20048;-62
2021/04/25 03:38:33;;;;;;;11.77;4.80;;;2.90;99.90;;;;;;4997620;28;20025;-63
2021/04/25 03:40:58;;;;;;;15.80;4.47;;;2.90;99.90;;;;;;4990786;28;20030;-63
2021/04/25 03:43:25;;;;;;;14.52;4.88;;;2.90;99.90;;;;;;4996094;28;20467;-63
2021/04/25 03:45:50;;;;;;;12.85;4.53;;;2.90;99.90;;;;;;4993313;28;20514;-63
2021/04/25 03:48:16;;;;;;;15.63;4.72;;;2.90;99.90;;;;;;4998305;28;20053;-64
2021/04/25 03:50:42;;;;;;;11.75;4.20;;;2.90;99.90;;;;;;4992879;28;20038;-63
2021/04/25 03:53:07;;;;;;;11.93;4.35;;;2.90;99.90;;;;;;4997108;28;20446;-62
2021/04/25 03:55:33;;;;;;;11.05;4.53;;;2.90;99.90;;;;;;5004705;28;20479;-63
2021/04/25 03:57:58;;;;;;;12.00;3.97;;;2.90;99.90;;;;;;4992792;28;20034;-63
2021/04/25 04:00:24;;;;;;;11.75;3.53;;;2.90;99.90;;;;;;4990592;28;20554;-64
2021/04/25 04:02:50;;;;;;;10.40;3.80;;;2.90;99.90;;;;;;4978064;28;20415;-64
2021/04/25 04:05:15;;;;;;;10.80;4.03;;;2.80;99.90;;;;;;4996625;28;20101;-62
2021/04/25 04:07:41;;;;;;;11.02;3.95;;;2.80;99.90;;;;;;5000822;28;20029;-61
2021/04/25 04:10:07;;;;;;;11.77;3.92;;;2.80;99.90;;;;;;5000539;28;20037;-63
2021/04/25 04:12:33;;;;;;;12.43;3.78;;;2.80;99.90;;;;;;4995210;28;20038;-64
2021/04/25 04:14:59;;;;;;;11.65;4.53;;;2.80;99.90;;;;;;4993026;28;20084;-61
2021/04/25 04:17:24;;;;;;;10.10;4.38;;;2.80;99.90;;;;;;4994724;28;20034;-63
2021/04/25 04:19:50;;;;;;;6.90;3.75;;;2.90;99.90;;;;;;5001587;28;20061;-63
2021/04/25 04:22:15;;;;;;;13.48;4.38;;;2.90;99.90;;;;;;4989793;28;20514;-63
2021/04/25 04:24:41;;;;;;;10.77;4.07;;;2.90;99.90;;;;;;4997475;28;20033;-64
2021/04/25 04:27:06;;;;;;;8.25;3.90;;;2.90;99.90;;;;;;4994656;28;20116;-62
2021/04/25 04:29:33;;;;;;;21.77;5.15;;;2.90;99.90;;;;;;4999709;28;20034;-63
2021/04/25 04:31:58;;;;;;;8.70;3.78;;;2.90;99.90;;;;;;4989068;28;20030;-64
2021/04/25 04:34:24;;;;;;;13.77;4.45;;;2.90;99.90;;;;;;4989981;28;20041;-64
2021/04/25 04:36:50;;;;;;;13.88;4.43;;;2.90;99.90;;;;;;4989321;28;20452;-64
2021/04/25 04:39:16;;;;;;;10.50;4.35;;;2.90;99.90;;;;;;4989808;28;20030;-64
2021/04/25 04:41:41;;;;;;;9.88;3.58;;;2.90;99.90;;;;;;4989091;28;20048;-63
2021/04/25 04:44:07;;;;;;;10.80;3.97;;;3.00;99.90;;;;;;4989260;28;20042;-64
2021/04/25 04:46:33;;;;;;;10.77;3.58;;;3.00;99.90;;;;;;4988389;28;20049;-63
2021/04/25 04:48:58;;;;;;;8.07;3.60;;;3.10;99.90;;;;;;4991690;28;20054;-64
2021/04/25 04:51:24;;;;;;;11.18;3.80;;;3.10;99.90;;;;;;4998361;28;20470;-63
2021/04/25 04:53:49;;;;;;;11.10;3.72;;;3.20;99.90;;;;;;5005070;28;20048;-63
2021/04/25 04:56:15;;;;;;;11.32;4.00;;;3.20;99.90;;;;;;5001112;28;20022;-62
2021/04/25 04:58:40;;;;;;;11.38;3.60;;;3.30;99.90;;;;;;4999616;28;20030;-62
2021/04/25 05:01:06;;;;;;;8.50;3.90;;;3.40;99.90;;;;;;4999557;28;20064;-63
2021/04/25 05:03:32;;;;;;;18.77;3.88;;;3.50;99.90;;;;;;4979761;28;20054;-63
2021/04/25 05:05:57;;;;;;;9.80;3.45;;;3.90;99.90;;;;;;5003458;28;20030;-63
2021/04/25 05:08:23;;;;;;;12.50;4.00;;;4.40;99.90;;;;;;5003607;28;20039;-63
2021/04/25 05:10:48;;;;;;;12.88;2.72;;;5.20;99.90;;;;;;5003993;28;20033;-63
2021/04/25 05:13:14;;;;;;;11.68;3.58;;;6.30;99.90;;;;;;4998499;28;20033;-62
2021/04/25 05:15:41;;;;;;;14.23;4.25;;;7.20;99.20;;;;;;4993277;28;20030;-62
2021/04/25 05:18:07;;;;;;;9.85;3.83;;;8.00;97.30;;;;;;4994657;28;20660;-56
2021/04/25 05:20:33;;;;;;;11.27;3.10;;;8.50;95.80;;;;;;4998414;28;20041;-58
2021/04/25 05:23:00;;;;;;;8.15;3.17;;;9.30;94.20;;;;;;5005595;28;20040;-63
2021/04/25 05:25:26;;;;;;;7.50;3.28;;;9.70;92.60;;;;;;5001221;28;20543;-64
2021/04/25 05:27:52;;;;;;;9.43;3.75;;;10.40;91.70;;;;;;5004839;28;20029;-64
2021/04/25 05:30:18;;;;;;;6.10;3.10;;;10.60;89.10;;;;;;4998568;28;20495;-63
2021/04/25 05:32:44;;;;;;;7.63;2.75;;;11.00;86.70;;;;;;5000100;28;20037;-62
2021/04/25 05:35:10;;;;;;;7.13;3.20;;;11.30;84.70;;;;;;4992431;28;20030;-62
2021/04/25 05:37:36;;;;;;;6.57;3.03;;;11.60;82.00;;;;;;4993432;28;20034;-63
2021/04/25 05:40:02;;;;;;;6.97;3.20;;;11.50;80.30;;;;;;5001447;28;20033;-64
2021/04/25 05:42:27;;;;;;;6.63;3.22;;;11.70;80.00;;;;;;4997218;28;20038;-64
2021/04/25 05:44:54;;;;;;;4.32;2.17;;;12.20;77.10;;;;;;5005549;28;20037;-64
2021/04/25 05:47:20;;;;;;;7.78;3.28;;;12.50;75.50;;;;;;4997698;28;20062;-63
2021/04/25 05:49:46;;;;;;;13.10;3.80;;;12.70;73.60;;;;;;5001866;28;20053;-64
2021/04/25 05:52:11;;;;;;;6.50;2.90;;;13.00;72.10;;;;;;5001710;28;20029;-64
2021/04/25 05:54:37;;;;;;;6.35;3.00;;;13.70;70.30;;;;;;4993239;28;20037;-63
2021/04/25 05:57:03;;;;;;;8.85;3.67;;;13.90;67.30;;;;;;4993807;28;20451;-64
2021/04/25 05:59:28;;;;;;;7.93;3.38;;;14.20;65.50;;;;;;4999305;28;20036;-63
2021/04/25 06:01:54;;;;;;;9.27;4.13;;;13.90;65.50;;;;;;4995049;28;20030;-63
2021/04/25 06:04:19;;;;;;;8.60;3.60;;;13.60;65.60;;;;;;4984760;28;20483;-63
2021/04/25 06:06:45;;;;;;;8.77;4.00;;;13.40;65.20;;;;;;5000124;28;20026;-64
2021/04/25 06:09:11;;;;;;;8.75;3.97;;;13.40;65.60;;;;;;5002833;28;20472;-63
2021/04/25 06:11:37;;;;;;;10.95;3.22;;;14.30;63.10;;;;;;5001683;28;20045;-64
2021/04/25 06:14:05;;;;;;;10.02;4.65;;;14.30;60.30;;;;;;5000464;28;20473;-64
2021/04/25 06:16:31;;;;;;;10.80;4.05;;;14.00;61.70;;;;;;4996584;28;20093;-64
2021/04/25 06:18:56;;;;;;;11.77;3.92;;;14.00;62.20;;;;;;4989047;28;20030;-63
2021/04/25 06:21:22;;;;;;;7.88;3.92;;;15.10;59.70;;;;;;4991646;28;20081;-63
2021/04/25 06:23:48;;;;;;;8.65;4.15;;;15.40;57.50;;;;;;4992111;28;20492;-63
2021/04/25 06:26:13;;;;;;;10.35;4.35;;;15.00;57.90;;;;;;4991674;28;20045;-63
2021/04/25 06:28:39;;;;;;;7.45;4.07;;;14.80;57.60;;;;;;4999591;28;20460;-63
2021/04/25 06:31:05;;;;;;;9.75;4.65;;;15.00;58.40;;;;;;4994379;28;20138;-65
2021/04/25 06:33:30;;;;;;;7.88;4.00;;;15.30;56.60;;;;;;5001316;28;20033;-64
2021/04/25 06:35:56;;;;;;;8.85;4.72;;;17.00;54.40;;;;;;4994174;28;20112;-64
2021/04/25 06:38:21;;;;;;;10.15;4.22;;;15.60;52.90;;;;;;4996305;28;20030;-64
2021/04/25 06:40:47;;;;;;;9.93;4.43;;;15.00;55.40;;;;;;4992308;28;20030;-63
2021/04/25 06:43:13;;;;;;;11.30;4.47;;;14.00;56.10;;;;;;4992804;28;20022;-64
2021/04/25 06:45:38;;;;;;;11.55;4.45;;;12.80;58.50;;;;;;4996736;28;20030;-63
2021/04/25 06:48:04;;;;;;;12.15;4.80;;;12.10;61.60;;;;;;4993591;28;20030;-64
2021/04/25 06:50:30;;;;;;;8.38;3.88;;;11.70;62.20;;;;;;5004848;28;20034;-63
2021/04/25 06:52:56;;;;;;;13.80;4.03;;;11.80;62.20;;;;;;4999237;28;20034;-64
2021/04/25 06:55:23;;;;;;;5.65;3.45;;;12.00;62.70;;;;;;4999032;28;20444;-62
2021/04/25 06:57:50;;;;;;;7.15;3.63;;;11.80;62.50;;;;;;4993825;28;20117;-63
2021/04/25 07:00:18;;;;;;;10.73;4.05;;;12.80;62.90;;;;;;4997766;28;20048;-63
2021/04/25 07:02:44;;;;;;;11.52;4.80;;;14.30;59.70;;;;;;4995993;28;20049;-64
2021/04/25 07:05:09;;;;;;;7.93;4.10;;;15.30;56.10;;;;;;4983746;28;20046;-64
2021/04/25 07:07:35;;;;;;;9.10;3.85;;;15.80;53.80;;;;;;5003518;28;20030;-63
2021/04/25 07:10:02;;;;;;;25.40;16.40;;;16.20;53.80;;;;;;4999747;28;20022;-64
2021/04/25 07:12:28;;;;;;;26.80;17.17;;;17.10;52.20;;;;;;4992887;28;20045;-64
2021/04/25 07:14:56;;;;;;;29.42;20.90;;;17.00;50.50;;;;;;4992613;28;20030;-64
2021/04/25 07:17:22;;;;;;;12.07;5.40;;;17.30;49.10;;;;;;4998848;28;20029;-62
2021/04/25 07:19:48;;;;;;;10.23;5.15;;;17.00;48.90;;;;;;5002152;28;20026;-63
2021/04/25 07:22:13;;;;;;;8.40;4.43;;;17.30;49.20;;;;;;4994987;28;20030;-64
2021/04/25 07:24:39;;;;;;;8.40;4.65;;;18.00;46.80;;;;;;5002909;28;20038;-64
2021/04/25 07:27:05;;;;;;;6.88;4.18;;;17.80;46.70;;;;;;4992927;28;20038;-64
2021/04/25 07:29:30;;;;;;;10.55;4.45;;;17.50;47.00;;;;;;4991823;28;20097;-64
2021/04/25 07:31:57;;;;;;;7.45;4.70;;;17.70;47.80;;;;;;4987658;28;20433;-64
2021/04/25 07:34:24;;;;;;;7.80;3.90;;;18.20;46.20;;;;;;4996357;28;20053;-64
2021/04/25 07:36:49;;;;;;;10.45;4.40;;;18.70;45.90;;;;;;4997360;28;20035;-63
2021/04/25 07:39:15;;;;;;;8.77;4.60;;;18.60;44.40;;;;;;4998669;28;20430;-64
2021/04/25 07:41:41;;;;;;;12.57;5.15;;;17.90;43.80;;;;;;4998395;28;20125;-63
2021/04/25 07:44:07;;;;;;;9.63;4.32;;;17.50;45.70;;;;;;4993016;28;20049;-65
2021/04/25 07:46:32;;;;;;;7.03;4.60;;;18.50;45.50;;;;;;4995309;28;20034;-65
2021/04/25 07:48:58;;;;;;;8.10;3.88;;;18.20;44.50;;;;;;5001084;28;20550;-64
2021/04/25 07:51:24;;;;;;;8.95;3.72;;;18.60;44.20;;;;;;4988024;28;20030;-63
2021/04/25 07:53:52;;;;;;;10.25;4.03;;;18.60;43.40;;;;;;4998782;28;20391;-63
2021/04/25 07:56:18;;;;;;;15.50;5.30;;;17.90;43.20;;;;;;5000435;28;20029;-64
2021/04/25 07:58:44;;;;;;;8.10;4.07;;;18.00;43.90;;;;;;4993602;28;20042;-64
2021/04/25 08:01:09;;;;;;;7.43;3.42;;;18.10;43.50;;;;;;4997221;28;20152;-63
2021/04/25 08:03:35;;;;;;;12.45;9.15;;;18.50;43.20;;;;;;4976251;28;20030;-63
2021/04/25 08:06:01;;;;;;;16.67;8.95;;;18.40;43.10;;;;;;4987808;28;20109;-64
2021/04/25 08:08:27;;;;;;;10.00;4.03;;;18.20;43.60;;;;;;4989813;28;20484;-64
2021/04/25 08:10:52;;;;;;;6.63;3.58;;;17.90;43.10;;;;;;4998644;28;20034;-64
2021/04/25 08:13:18;;;;;;;7.03;3.60;;;18.10;44.30;;;;;;4995506;28;20022;-64
2021/04/25 08:15:44;;;;;;;7.68;3.83;;;17.60;43.60;;;;;;4997847;28;20046;-64
2021/04/25 08:18:09;;;;;;;9.45;4.10;;;16.20;44.90;;;;;;4998194;28;20061;-64
2021/04/25 08:20:35;;;;;;;12.40;4.35;;;16.40;45.50;;;;;;4998606;28;20038;-64
2021/04/25 08:23:02;;;;;;;10.27;4.07;;;16.10;45.90;;;;;;4993812;28;20030;-62
2021/04/25 08:25:28;;;;;;;9.45;4.70;;;16.80;45.20;;;;;;4989797;28;20102;-64
2021/04/25 08:27:54;;;;;;;8.70;4.15;;;17.60;44.30;;;;;;5002180;28;20125;-64
2021/04/25 08:30:21;;;;;;;9.18;4.55;;;17.10;44.10;;;;;;4989927;28;20022;-65
2021/04/25 08:32:46;;;;;;;8.30;3.78;;;17.10;45.00;;;;;;4996572;28;20443;-65
2021/04/25 08:35:12;;;;;;;8.80;5.15;;;17.50;44.00;;;;;;5003234;28;20034;-62
2021/04/25 08:37:38;;;;;;;9.18;5.13;;;17.20;45.40;;;;;;4993829;28;20077;-62
2021/04/25 08:40:05;;;;;;;9.93;3.88;;;16.90;44.50;;;;;;4999233;28;20030;-64
2021/04/25 08:42:30;;;;;;;7.40;4.82;;;16.30;45.80;;;;;;4993409;28;20452;-64
2021/04/25 08:44:56;;;;;;;10.45;4.55;;;16.30;46.00;;;;;;4991395;28;20038;-64
2021/04/25 08:47:23;;;;;;;11.18;4.80;;;16.60;45.10;;;;;;4989934;28;20084;-63
2021/04/25 08:49:49;;;;;;;11.10;4.57;;;16.60;44.60;;;;;;5005726;28;20514;-64
2021/04/25 08:52:19;;;;;;;6.10;4.05;;;16.60;44.90;;;;;;4993010;28;20026;-65
2021/04/25 08:54:45;;;;;;;9.77;4.32;;;16.60;45.90;;;;;;4997783;28;20023;-64
2021/04/25 08:57:11;;;;;;;7.43;4.63;;;17.00;45.30;;;;;;4989504;28;20076;-65
2021/04/25 08:59:36;;;;;;;8.85;4.30;;;17.10;43.50;;;;;;4995312;28;20042;-64
2021/04/25 09:02:02;;;;;;;8.82;5.22;;;16.70;44.60;;;;;;4995510;28;20117;-64
2021/04/25 09:04:27;;;;;;;9.35;4.43;;;16.70;44.00;;;;;;4966486;28;20134;-64
2021/04/25 09:07:03;;;;;;;9.40;4.00;;;16.70;45.20;;;;;;4997884;28;20069;-65
2021/04/25 09:09:43;;;;;;;9.88;4.43;;;16.70;44.80;;;;;;5000374;28;20030;-63
2021/04/25 09:12:10;;;;;;;8.73;4.65;;;15.70;46.50;;;;;;5000212;28;20017;-64
2021/04/25 09:14:40;;;;;;;8.85;4.60;;;15.30;47.30;;;;;;4997425;28;20026;-65
2021/04/25 09:17:06;;;;;;;8.57;4.82;;;16.00;47.00;;;;;;4993041;28;20511;-63
2021/04/25 09:19:59;;;;;;;6.40;4.10;;;16.50;46.20;;;;;;4992514;28;20030;-63
2021/04/25 09:22:42;;;;;;;9.98;4.28;;;16.80;44.80;;;;;;4990130;28;20042;-64
2021/04/25 09:25:11;;;;;;;6.80;3.90;;;16.40;44.60;;;;;;4996516;28;20034;-64
2021/04/25 09:27:37;;;;;;;8.55;4.10;;;16.30;44.30;;;;;;5000519;28;20105;-63
2021/04/25 09:30:04;;;;;;;9.25;4.50;;;15.90;44.90;;;;;;4994504;28;20448;-63
2021/04/25 09:32:32;;;;;;;5.82;3.88;;;15.40;45.40;;;;;;4990216;28;20113;-64
2021/04/25 09:35:06;;;;;;;9.20;4.10;;;15.50;47.10;;;;;;4993360;28;20026;-64
2021/04/25 09:37:35;;;;;;;6.68;4.22;;;15.70;46.20;;;;;;4989680;28;20084;-64
2021/04/25 09:40:10;;;;;;;7.43;4.05;;;16.40;44.70;;;;;;5007286;28;20105;-64
2021/04/25 09:42:58;;;;;;;10.85;4.18;;;15.90;44.70;;;;;;4997359;28;20586;-64
2021/04/25 09:45:27;;;;;;;6.72;3.92;;;14.60;45.80;;;;;;4994209;28;20061;-64
2021/04/25 09:47:53;;;;;;;9.13;4.53;;;14.90;47.70;;;;;;4992170;28;20015;-64
2021/04/25 09:50:21;;;;;;;6.35;3.97;;;15.10;45.80;;;;;;4991307;28;20038;-64
2021/04/25 09:52:50;;;;;;;9.00;4.47;;;15.50;46.90;;;;;;4990691;28;20022;-63
2021/04/25 09:55:42;;;;;;;7.72;4.25;;;16.00;46.00;;;;;;4992566;28;20534;-63
2021/04/25 09:58:09;;;;;;;8.52;4.97;;;15.20;45.60;;;;;;4995915;28;20053;-64
2021/04/25 10:00:47;;;;;;;9.35;5.45;;;14.60;46.90;;;;;;5001331;28;20045;-63
2021/04/25 10:03:13;;;;;;;8.32;4.38;;;14.50;48.00;;;;;;4996170;28;20562;-64
2021/04/25 10:05:54;;;;;;;6.60;3.65;;;14.30;49.10;;;;;;4979573;28;20062;-63
2021/04/25 10:08:30;;;;;;;7.65;3.95;;;13.80;51.50;;;;;;4991873;28;20534;-63
2021/04/25 10:10:56;;;;;;;8.73;3.88;;;13.40;51.50;;;;;;5000548;28;20059;-63
2021/04/25 10:13:24;;;;;;;7.32;4.00;;;13.40;50.00;;;;;;4998808;28;20656;-62
2021/04/25 10:15:49;;;;;;;8.27;3.72;;;12.60;51.70;;;;;;4992127;28;20105;-62
2021/04/25 10:18:18;;;;;;;9.48;4.00;;;12.60;52.60;;;;;;4989830;28;20110;-61
2021/04/25 10:20:45;;;;;;;12.55;4.32;;;12.90;54.10;;;;;;4995065;28;20500;-63
2021/04/25 10:23:12;;;;;;;7.88;4.28;;;13.10;52.40;;;;;;4993814;28;20042;-62
2021/04/25 10:25:38;;;;;;;6.30;3.90;;;12.90;54.10;;;;;;4993170;28;20030;-63
2021/04/25 10:28:10;;;;;;;8.88;3.90;;;12.80;53.20;;;;;;4994182;28;20134;-62
2021/04/25 10:30:40;;;;;;;9.80;4.18;;;13.10;53.00;;;;;;4991546;28;20058;-60
2021/04/25 10:33:06;;;;;;;9.95;4.25;;;12.90;53.10;;;;;;4991276;28;20376;-62
2021/04/25 10:35:34;;;;;;;7.97;4.05;;;12.90;52.50;;;;;;4993274;28;20037;-63
2021/04/25 10:38:01;;;;;;;6.47;3.38;;;12.80;51.90;;;;;;4991047;28;20044;-61
2021/04/25 10:40:44;;;;;;;6.70;3.42;;;12.90;52.50;;;;;;4991708;28;20038;-63
2021/04/25 10:43:11;;;;;;;10.23;4.55;;;13.00;52.70;;;;;;4988421;28;20030;-62
2021/04/25 10:45:57;;;;;;;11.18;3.95;;;13.00;51.80;;;;;;4976781;28;20034;-62
2021/04/25 10:48:32;;;;;;;6.57;3.35;;;12.70;53.40;;;;;;4979047;28;20056;-63
2021/04/25 10:51:08;;;;;;;6.68;3.58;;;12.90;53.80;;;;;;4982991;28;20373;-62
2021/04/25 10:53:37;;;;;;;6.97;3.72;;;12.60;53.80;;;;;;4976833;28;20018;-61
2021/04/25 10:56:12;;;;;;;10.40;4.55;;;12.80;52.80;;;;;;4976729;28;20033;-62
2021/04/25 10:58:38;;;;;;;7.95;4.05;;;12.50;51.30;;;;;;4980084;28;20053;-62
2021/04/25 11:01:04;;;;;;;8.73;4.38;;;12.10;54.00;;;;;;4992084;28;20031;-63
2021/04/25 11:03:32;;;;;;;6.38;3.78;;;12.10;53.50;;;;;;4979087;28;20042;-63
2021/04/25 11:05:58;;;;;;;7.95;3.80;;;12.00;54.00;;;;;;4963748;28;20050;-62
2021/04/25 11:08:29;;;;;;;10.82;4.25;;;11.90;54.20;;;;;;4977425;28;20031;-61
2021/04/25 11:11:11;;;;;;;7.95;4.47;;;12.00;54.20;;;;;;4989706;28;20022;-62
2021/04/25 11:13:47;;;;;;;7.95;3.67;;;11.90;53.00;;;;;;4985878;28;20031;-63
2021/04/25 11:16:16;;;;;;;7.47;3.92;;;11.90;54.60;;;;;;4981431;28;20505;-63
2021/04/25 11:18:45;;;;;;;8.57;3.78;;;12.00;52.70;;;;;;4980603;28;20034;-62
2021/04/25 11:21:36;;;;;;;8.80;3.75;;;11.90;52.50;;;;;;4979470;28;20108;-62
2021/04/25 11:24:01;;;;;;;7.00;3.67;;;11.80;53.60;;;;;;4984337;28;20027;-63
2021/04/25 11:26:39;;;;;;;8.15;3.85;;;12.00;54.20;;;;;;4987862;28;20165;-63
2021/04/25 11:29:11;;;;;;;8.30;3.92;;;12.20;55.80;;;;;;4988869;28;20073;-63
2021/04/25 11:34:30;;;;;;;11.32;4.18;;;12.40;55.10;;;;;;4994550;28;20021;-63
2021/04/25 11:37:21;;;;;;;8.23;3.42;;;12.50;53.40;;;;;;4992036;28;20034;-62
2021/04/25 11:40:07;;;;;;;10.75;4.32;;;12.40;54.20;;;;;;4994523;28;20052;-63
2021/04/25 11:42:50;;;;;;;11.80;4.35;;;12.20;54.10;;;;;;4990061;28;20034;-63
2021/04/25 11:45:21;;;;;;;8.10;3.78;;;12.20;54.10;;;;;;4993765;28;20022;-62
2021/04/25 11:47:58;;;;;;;8.32;4.32;;;11.90;54.10;;;;;;4993992;28;20014;-63
2021/04/25 11:50:32;;;;;;;10.27;4.10;;;11.70;57.00;;;;;;4990358;28;20033;-63
2021/04/25 11:52:58;;;;;;;;;;;11.50;57.40;;;;;;4991190;28;20022;-62
2021/04/25 11:55:24;;;;;;;12.52;4.45;;;11.70;56.80;;;;;;4987463;28;19916;-62
2021/04/25 11:57:51;;;;;;;5.93;3.70;;;11.90;55.80;;;;;;4988323;28;20030;-63
2021/04/25 12:00:26;;;;;;;7.80;3.75;;;11.80;56.10;;;;;;4987203;28;20074;-63
2021/04/25 12:02:52;;;;;;;9.70;4.13;;;11.80;56.70;;;;;;4991320;28;20030;-63
2021/04/25 12:05:20;;;;;;;8.85;4.10;;;11.90;55.30;;;;;;4975470;28;20057;-63
2021/04/25 12:07:48;;;;;;;9.02;3.83;;;12.00;55.90;;;;;;4985133;28;20026;-62
2021/04/25 12:10:17;;;;;;;8.60;4.72;;;12.10;55.50;;;;;;4983133;28;20030;-62
2021/04/25 12:13:04;;;;;;;8.57;4.30;;;12.00;56.20;;;;;;4983661;28;20058;-63
2021/04/25 12:15:38;;;;;;;15.60;5.57;;;12.00;56.90;;;;;;4986923;28;20038;-64
2021/04/25 12:18:04;;;;;;;13.23;6.30;;;12.10;56.40;;;;;;4986059;28;20025;-63
2021/04/25 12:20:29;;;;;;;9.52;4.97;;;11.90;55.40;;;;;;4987240;28;20065;-62
2021/04/25 12:22:56;;;;;;;11.05;3.63;;;12.00;56.70;;;;;;4991825;28;20034;-64
2021/04/25 12:25:22;;;;;;;12.18;4.22;;;11.80;56.50;;;;;;4986951;28;20855;-64
2021/04/25 12:27:52;;;;;;;9.63;4.55;;;11.70;56.20;;;;;;4985435;28;20476;-64
2021/04/25 12:30:23;;;;;;;7.47;4.32;;;11.90;55.80;;;;;;4982440;28;20022;-63
2021/04/25 12:33:09;;;;;;;9.52;4.20;;;11.80;56.10;;;;;;4985873;28;20026;-64
2021/04/25 12:35:38;;;;;;;8.35;3.80;;;11.80;56.80;;;;;;4983567;28;20046;-64
2021/04/25 12:38:31;;;;;;;7.20;4.32;;;11.60;58.40;;;;;;4983116;28;20093;-64
2021/04/25 12:41:15;;;;;;;6.85;3.40;;;11.70;56.50;;;;;;4986545;28;20125;-62
2021/04/25 12:43:46;;;;;;;10.40;5.78;;;11.80;58.20;;;;;;4987298;28;20026;-64
2021/04/25 12:46:18;;;;;;;10.52;5.30;;;11.90;56.10;;;;;;4988931;28;20058;-62
2021/04/25 12:48:47;;;;;;;12.50;4.32;;;11.90;55.90;;;;;;4988509;28;20033;-64
2021/04/25 12:51:18;;;;;;;10.10;3.70;;;12.00;56.90;;;;;;4993233;28;20022;-63
2021/04/25 12:53:52;;;;;;;10.55;3.90;;;12.10;57.40;;;;;;4990603;28;20010;-63